createdAt,value
2017-11-04T00:00:53.738Z,91.70
2017-11-04T00:03:21.989Z,91.70
2017-11-04T00:05:50.250Z,92.50
2017-11-04T00:08:18.514Z,92.00
2017-11-04T00:10:46.766Z,92.40
2017-11-04T00:13:15.018Z,92.10
2017-11-04T00:15:43.297Z,91.90
2017-11-04T00:18:12.322Z,92.50
2017-11-04T00:20:40.578Z,92.50
2017-11-04T00:23:09.102Z,92.60
2017-11-04T00:25:37.341Z,92.70
2017-11-04T00:28:05.599Z,92.20
2017-11-04T00:30:33.875Z,92.20
2017-11-04T00:33:02.902Z,92.30
2017-11-04T00:35:32.157Z,92.30
2017-11-04T00:38:00.430Z,92.00
2017-11-04T00:40:29.526Z,92.70
2017-11-04T00:42:57.782Z,92.70
2017-11-04T00:45:26.355Z,91.50
2017-11-04T00:47:54.758Z,92.80
2017-11-04T00:50:23.020Z,93.10
2017-11-04T00:52:51.307Z,92.40
2017-11-04T00:55:19.818Z,92.70
2017-11-04T00:57:48.854Z,92.20
2017-11-04T01:00:17.135Z,92.20
2017-11-04T01:02:45.400Z,92.80
2017-11-04T01:05:13.646Z,92.60
2017-11-04T01:07:42.774Z,92.90
2017-11-04T01:10:11.020Z,92.50
2017-11-04T01:12:40.043Z,92.40
2017-11-04T01:15:08.309Z,92.40
2017-11-04T01:17:36.571Z,92.90
2017-11-04T01:20:04.833Z,92.60
2017-11-04T01:22:33.877Z,92.80
2017-11-04T01:25:02.137Z,93.20
2017-11-04T01:27:30.384Z,92.30
2017-11-04T01:29:59.021Z,92.80
2017-11-04T01:32:27.270Z,92.30
2017-11-04T01:34:55.519Z,93.20
2017-11-04T01:37:23.822Z,92.30
2017-11-04T01:39:52.826Z,92.60
2017-11-04T01:42:21.278Z,92.70
2017-11-04T01:44:49.558Z,92.70
2017-11-04T01:47:18.573Z,92.60
2017-11-04T01:49:46.817Z,92.60
2017-11-04T01:52:15.230Z,93.10
2017-11-04T01:54:43.486Z,92.80
2017-11-04T01:57:11.737Z,92.70
2017-11-04T01:59:40.133Z,92.50
2017-11-04T02:02:09.173Z,92.40
2017-11-04T02:04:37.427Z,92.00
2017-11-04T02:07:05.702Z,91.90
2017-11-04T02:09:33.955Z,91.90
2017-11-04T02:12:02.975Z,92.90
2017-11-04T02:14:31.308Z,92.90
2017-11-04T02:16:59.550Z,92.10
2017-11-04T02:19:27.806Z,92.50
2017-11-04T02:21:56.084Z,92.30
2017-11-04T02:24:24.335Z,93.00
2017-11-04T02:26:52.582Z,92.80
2017-11-04T02:29:20.863Z,92.40
2017-11-04T02:31:49.114Z,92.70
2017-11-04T02:34:17.364Z,92.50
2017-11-04T02:36:47.113Z,92.10
2017-11-04T02:39:15.358Z,92.20
2017-11-04T02:41:43.610Z,92.40
2017-11-04T02:44:12.131Z,93.10
2017-11-04T02:46:40.375Z,93.00
2017-11-04T02:49:08.646Z,93.00
2017-11-04T02:51:37.679Z,92.60
2017-11-04T02:54:05.930Z,92.60
2017-11-04T02:56:34.180Z,92.50
2017-11-04T02:59:02.814Z,93.40
2017-11-04T03:01:31.066Z,92.60
2017-11-04T03:03:59.509Z,92.80
2017-11-04T03:06:27.775Z,93.30
2017-11-04T03:08:56.040Z,92.60
2017-11-04T03:11:24.294Z,93.80
2017-11-04T03:13:52.558Z,93.50
2017-11-04T03:16:21.698Z,93.20
2017-11-04T03:18:49.955Z,93.00
2017-11-04T03:21:18.534Z,93.30
2017-11-04T03:23:46.766Z,93.70
2017-11-04T03:26:15.011Z,93.80
2017-11-04T03:28:43.278Z,93.50
2017-11-04T03:31:11.527Z,93.70
2017-11-04T03:33:39.772Z,93.00
2017-11-04T03:36:08.805Z,93.50
2017-11-04T03:38:37.046Z,93.50
2017-11-04T03:41:05.290Z,93.30
2017-11-04T03:43:33.643Z,94.00
2017-11-04T03:46:02.287Z,94.70
2017-11-04T03:48:31.304Z,93.90
2017-11-04T03:51:00.006Z,93.90
2017-11-04T03:53:28.260Z,93.50
2017-11-04T03:55:56.499Z,93.70
2017-11-04T03:58:24.767Z,94.60
2017-11-04T04:00:53.010Z,94.30
2017-11-04T04:03:21.250Z,94.50
2017-11-04T04:05:50.603Z,94.30
2017-11-04T04:08:18.850Z,94.20
2017-11-04T04:10:47.098Z,94.10
2017-11-04T04:13:16.130Z,94.10
2017-11-04T04:15:44.383Z,94.10
2017-11-04T04:18:12.628Z,94.40
2017-11-04T04:20:40.903Z,94.40
2017-11-04T04:23:09.146Z,94.40
2017-11-04T04:25:37.401Z,94.30
2017-11-04T04:28:05.722Z,93.60
2017-11-04T04:30:33.966Z,93.20
2017-11-04T04:33:02.210Z,93.40
2017-11-04T04:35:30.482Z,92.90
2017-11-04T04:37:59.498Z,92.70
2017-11-04T04:40:27.754Z,92.70
2017-11-04T04:42:56.022Z,93.00
2017-11-04T04:45:25.046Z,93.00
2017-11-04T04:47:53.609Z,92.90
2017-11-04T04:50:22.977Z,92.90
2017-11-04T04:52:51.259Z,92.90
2017-11-04T04:55:19.507Z,92.50
2017-11-04T04:57:47.770Z,92.40
2017-11-04T05:00:16.015Z,92.80
2017-11-04T05:02:44.263Z,92.60
2017-11-04T05:05:12.918Z,92.50
2017-11-04T05:07:41.157Z,92.60
2017-11-04T05:10:09.403Z,92.40
2017-11-04T05:12:37.759Z,92.30
2017-11-04T05:15:05.999Z,91.80
2017-11-04T05:17:34.422Z,92.00
2017-11-04T05:20:02.686Z,92.00
2017-11-04T05:22:30.930Z,92.30
2017-11-04T05:24:59.178Z,92.50
2017-11-04T05:27:27.446Z,92.30
2017-11-04T05:29:55.694Z,92.50
2017-11-04T05:32:23.933Z,92.40
2017-11-04T05:34:52.574Z,92.60
2017-11-04T05:37:20.822Z,92.40
2017-11-04T05:39:49.074Z,92.60
2017-11-04T05:42:17.356Z,92.50
2017-11-04T05:44:45.603Z,92.60
2017-11-04T05:47:13.859Z,92.40
2017-11-04T05:49:42.246Z,92.30
2017-11-04T05:52:10.498Z,92.70
2017-11-04T05:54:38.733Z,92.40
2017-11-04T05:57:07.055Z,92.30
2017-11-04T05:59:35.306Z,92.20
2017-11-04T06:02:03.559Z,92.30
2017-11-04T06:04:31.824Z,92.40
2017-11-04T06:07:00.841Z,92.60
2017-11-04T06:09:29.090Z,92.60
2017-11-04T06:11:57.362Z,92.90
2017-11-04T06:14:25.604Z,92.70
2017-11-04T06:16:53.851Z,92.70
2017-11-04T06:19:23.683Z,92.70
2017-11-04T06:21:51.930Z,91.70
2017-11-04T06:24:20.192Z,91.80
2017-11-04T06:26:48.438Z,92.00
2017-11-04T06:29:16.682Z,92.40
2017-11-04T06:31:44.935Z,92.00
2017-11-04T06:34:13.211Z,91.70
2017-11-04T06:36:41.458Z,91.80
2017-11-04T06:39:09.706Z,92.10
2017-11-04T06:41:38.166Z,91.80
2017-11-04T06:44:06.418Z,91.90
2017-11-04T06:46:34.655Z,91.70
2017-11-04T06:49:02.927Z,91.80
2017-11-04T06:51:31.599Z,91.90
2017-11-04T06:53:59.843Z,91.80
2017-11-04T06:56:28.118Z,92.00
2017-11-04T06:58:56.365Z,92.30
2017-11-04T07:01:24.614Z,92.30
2017-11-04T07:03:53.279Z,92.00
2017-11-04T07:06:21.530Z,91.70
2017-11-04T07:08:49.774Z,91.60
2017-11-04T07:11:18.043Z,91.70
2017-11-04T07:13:46.294Z,91.60
2017-11-04T07:16:14.539Z,92.00
2017-11-04T07:18:42.806Z,91.50
2017-11-04T07:21:11.050Z,91.50
2017-11-04T07:23:39.304Z,91.80
2017-11-04T07:26:07.867Z,91.40
2017-11-04T07:28:36.111Z,91.50
2017-11-04T07:31:04.354Z,91.60
2017-11-04T07:33:32.626Z,91.30
2017-11-04T07:36:00.866Z,91.40
2017-11-04T07:38:29.117Z,91.20
2017-11-04T07:40:58.159Z,90.80
2017-11-04T07:43:26.385Z,90.80
2017-11-04T07:45:54.631Z,91.00
2017-11-04T07:48:23.173Z,91.10
2017-11-04T07:50:51.424Z,91.10
2017-11-04T07:53:19.899Z,91.20
2017-11-04T07:55:48.929Z,91.40
2017-11-04T07:58:17.195Z,91.40
2017-11-04T08:00:45.445Z,91.30
2017-11-04T08:03:13.726Z,91.30
2017-11-04T08:05:42.738Z,91.30
2017-11-04T08:08:10.982Z,91.20
2017-11-04T08:10:40.510Z,90.70
2017-11-04T08:13:08.762Z,90.90
2017-11-04T08:15:37.786Z,91.00
2017-11-04T08:18:06.133Z,90.90
2017-11-04T08:20:35.155Z,91.30
2017-11-04T08:23:03.402Z,91.30
2017-11-04T08:25:31.671Z,91.60
2017-11-04T08:27:59.920Z,91.30
2017-11-04T08:30:28.178Z,91.20
2017-11-04T08:32:56.766Z,91.00
2017-11-04T08:35:25.062Z,90.90
2017-11-04T08:37:53.286Z,90.80
2017-11-04T08:40:21.559Z,90.10
2017-11-04T08:42:50.569Z,89.20
2017-11-04T08:45:18.906Z,89.20
2017-11-04T08:47:47.177Z,90.10
2017-11-04T08:50:15.422Z,90.00
2017-11-04T08:52:43.670Z,88.20
2017-11-04T08:55:12.665Z,88.10
2017-11-04T08:57:40.922Z,89.00
2017-11-04T09:00:09.171Z,86.80
2017-11-04T09:02:37.447Z,85.20
2017-11-04T09:05:05.698Z,85.00
2017-11-04T09:07:33.955Z,85.60
2017-11-04T09:10:02.254Z,87.10
2017-11-04T09:12:30.506Z,88.10
2017-11-04T09:14:58.771Z,84.80
2017-11-04T09:17:27.082Z,85.70
2017-11-04T09:19:55.341Z,82.70
2017-11-04T09:22:23.582Z,85.40
2017-11-04T09:24:51.850Z,86.20
2017-11-04T09:27:20.104Z,86.80
2017-11-04T09:29:48.350Z,87.30
2017-11-04T09:32:17.068Z,85.90
2017-11-04T09:34:45.293Z,86.90
2017-11-04T09:37:14.298Z,87.90
2017-11-04T09:39:42.707Z,87.80
2017-11-04T09:42:10.968Z,87.90
2017-11-04T09:44:39.207Z,87.60
2017-11-04T09:47:08.251Z,88.30
2017-11-04T09:49:36.498Z,88.30
2017-11-04T09:52:04.751Z,88.00
2017-11-04T09:54:33.028Z,88.30
2017-11-04T09:57:01.434Z,88.50
2017-11-04T09:59:29.695Z,87.40
2017-11-04T10:01:59.031Z,88.20
2017-11-04T10:04:27.402Z,88.20
2017-11-04T10:06:55.722Z,87.80
2017-11-04T10:09:24.000Z,87.10
2017-11-04T10:11:53.776Z,86.40
2017-11-04T10:14:22.054Z,86.60
2017-11-04T10:16:50.328Z,84.50
2017-11-04T10:19:18.590Z,83.30
2017-11-04T10:21:46.847Z,82.10
2017-11-04T10:24:15.175Z,83.30
2017-11-04T10:26:43.421Z,85.30
2017-11-04T10:29:11.682Z,83.10
2017-11-04T10:31:39.959Z,81.60
2017-11-04T10:34:08.207Z,83.30
2017-11-04T10:36:36.469Z,82.40
2017-11-04T10:39:04.747Z,80.00
2017-11-04T10:41:33.009Z,80.30
2017-11-04T10:44:01.257Z,82.30
2017-11-04T10:46:29.626Z,82.00
2017-11-04T10:48:57.882Z,82.90
2017-11-04T10:51:26.911Z,81.60
2017-11-04T10:53:55.194Z,81.30
2017-11-04T10:56:23.450Z,83.70
2017-11-04T10:58:51.714Z,83.10
2017-11-04T11:01:20.760Z,83.50
2017-11-04T11:03:49.054Z,83.90
2017-11-04T11:06:17.319Z,81.70
2017-11-04T11:08:45.646Z,82.80
2017-11-04T11:11:13.918Z,80.20
2017-11-04T11:13:42.949Z,82.40
2017-11-04T11:16:11.240Z,82.30
2017-11-04T11:18:40.566Z,77.50
2017-11-04T11:21:08.822Z,74.40
2017-11-04T11:23:37.100Z,77.10
2017-11-04T11:28:40.786Z,77.40
2017-11-04T11:31:09.037Z,77.20
2017-11-04T11:33:38.063Z,79.60
2017-11-04T11:36:06.334Z,79.60
2017-11-04T11:38:34.655Z,76.20
2017-11-04T11:41:02.936Z,75.90
2017-11-04T11:43:31.206Z,73.20
2017-11-04T11:45:59.469Z,72.90
2017-11-04T11:48:27.871Z,73.80
2017-11-04T11:50:56.211Z,75.30
2017-11-04T11:53:24.626Z,74.20
2017-11-04T11:55:53.007Z,72.40
2017-11-04T11:58:21.603Z,73.30
2017-11-04T12:00:49.871Z,71.20
2017-11-04T12:03:18.308Z,75.40
2017-11-04T12:05:46.587Z,76.70
2017-11-04T12:08:14.906Z,75.30
2017-11-04T12:10:43.164Z,78.30
2017-11-04T12:13:11.738Z,70.60
2017-11-04T12:15:39.989Z,69.30
2017-11-04T12:18:08.309Z,68.90
2017-11-04T12:20:37.743Z,61.50
2017-11-04T12:23:06.789Z,61.70
2017-11-04T12:25:35.039Z,61.20
2017-11-04T12:28:03.315Z,62.40
2017-11-04T12:30:31.594Z,61.40
2017-11-04T12:32:59.853Z,62.80
2017-11-04T12:35:28.201Z,65.20
2017-11-04T12:37:56.463Z,68.40
2017-11-04T12:40:25.470Z,64.90
2017-11-04T12:42:53.750Z,64.90
2017-11-04T12:45:22.013Z,63.50
2017-11-04T12:47:50.257Z,61.40
2017-11-04T12:50:20.762Z,63.40
2017-11-04T12:52:49.014Z,63.20
2017-11-04T12:55:17.274Z,63.50
2017-11-04T12:57:45.753Z,65.60
2017-11-04T13:00:14.012Z,64.60
2017-11-04T13:02:43.238Z,63.40
2017-11-04T13:05:11.515Z,60.60
2017-11-04T13:07:39.762Z,63.00
2017-11-04T13:10:08.022Z,59.50
2017-11-04T13:12:37.426Z,58.60
2017-11-04T13:15:06.679Z,58.40
2017-11-04T13:17:35.241Z,60.30
2017-11-04T13:20:03.572Z,60.60
2017-11-04T13:22:31.835Z,63.70
2017-11-04T13:25:03.903Z,59.60
2017-11-04T13:27:33.024Z,59.50
2017-11-04T13:30:01.275Z,60.00
2017-11-04T13:32:30.320Z,58.40
2017-11-04T13:34:58.578Z,58.50
2017-11-04T13:37:30.071Z,56.70
2017-11-04T13:39:58.424Z,53.60
2017-11-04T13:42:26.731Z,55.80
2017-11-04T13:44:55.006Z,53.40
2017-11-04T13:47:23.290Z,54.80
2017-11-04T13:49:51.561Z,55.90
2017-11-04T13:52:19.819Z,54.60
2017-11-04T13:54:50.295Z,56.70
2017-11-04T13:57:19.317Z,57.40
2017-11-04T13:59:47.946Z,57.40
2017-11-04T14:02:16.395Z,56.60
2017-11-04T14:04:44.693Z,58.00
2017-11-04T14:07:12.954Z,57.90
2017-11-04T14:09:42.399Z,58.80
2017-11-04T14:12:11.563Z,62.90
2017-11-04T14:14:39.806Z,62.90
2017-11-04T14:17:09.445Z,63.50
2017-11-04T14:19:39.894Z,64.30
2017-11-04T14:22:08.166Z,64.20
2017-11-04T14:24:36.738Z,64.00
2017-11-04T14:27:04.990Z,65.40
2017-11-04T14:29:33.244Z,66.30
2017-11-04T14:32:02.734Z,65.20
2017-11-04T14:34:31.761Z,66.30
2017-11-04T14:37:00.007Z,66.30
2017-11-04T14:39:28.802Z,67.10
2017-11-04T14:41:57.066Z,67.70
2017-11-04T14:44:26.154Z,68.20
2017-11-04T14:46:55.338Z,68.30
2017-11-04T14:49:23.592Z,68.20
2017-11-04T14:51:51.854Z,68.00
2017-11-04T14:54:20.140Z,68.00
2017-11-04T14:56:48.395Z,68.20
2017-11-04T14:59:16.674Z,68.80
2017-11-04T15:01:45.158Z,69.40
2017-11-04T15:04:13.426Z,69.60
2017-11-04T15:06:41.870Z,70.10
2017-11-04T15:09:11.044Z,70.70
2017-11-04T15:11:39.287Z,70.60
2017-11-04T15:14:07.670Z,70.70
2017-11-04T15:16:39.120Z,71.50
2017-11-04T15:19:07.466Z,71.70
2017-11-04T15:21:37.687Z,71.50
2017-11-04T15:24:06.742Z,72.10
2017-11-04T15:26:35.022Z,71.60
2017-11-04T15:29:03.446Z,72.10
2017-11-04T15:31:33.722Z,72.90
2017-11-04T15:34:01.981Z,72.90
2017-11-04T15:36:30.630Z,73.50
2017-11-04T15:39:00.887Z,73.40
2017-11-04T15:41:29.650Z,73.40
2017-11-04T15:43:59.099Z,73.90
2017-11-04T15:46:28.974Z,74.20
2017-11-04T15:48:57.563Z,74.20
2017-11-04T15:51:25.915Z,75.60
2017-11-04T15:53:54.318Z,75.90
2017-11-04T15:56:22.646Z,75.30
2017-11-04T15:58:50.899Z,76.80
2017-11-04T16:01:20.362Z,76.80
2017-11-04T16:03:49.050Z,76.80
2017-11-04T16:06:18.832Z,76.50
2017-11-04T16:08:47.352Z,76.50
2017-11-04T16:11:16.615Z,77.70
2017-11-04T16:13:44.871Z,78.80
2017-11-04T16:16:13.205Z,77.80
2017-11-04T16:18:42.671Z,76.70
2017-11-04T16:21:12.888Z,78.50
2017-11-04T16:23:41.170Z,79.60
2017-11-04T16:26:09.447Z,79.00
2017-11-04T16:28:38.646Z,79.20
2017-11-04T16:31:06.926Z,80.50
2017-11-04T16:33:35.426Z,80.10
2017-11-04T16:36:03.691Z,81.00
2017-11-04T16:38:32.035Z,81.30
2017-11-04T16:41:00.294Z,78.80
2017-11-04T16:43:28.538Z,79.90
2017-11-04T16:45:56.837Z,80.10
2017-11-04T16:48:25.074Z,83.00
2017-11-04T16:50:53.470Z,83.20
2017-11-04T16:53:21.771Z,81.90
2017-11-04T16:55:50.202Z,80.80
2017-11-04T16:58:18.467Z,80.50
2017-11-04T17:00:48.562Z,82.40
2017-11-04T17:03:16.840Z,81.70
2017-11-04T17:05:45.086Z,81.90
2017-11-04T17:08:13.362Z,83.80
2017-11-04T17:10:42.635Z,86.20
2017-11-04T17:13:10.898Z,85.80
2017-11-04T17:15:39.186Z,84.50
2017-11-04T17:18:09.681Z,84.10
2017-11-04T17:20:37.920Z,86.10
2017-11-04T17:23:06.562Z,83.90
2017-11-04T17:25:34.952Z,83.00
2017-11-04T17:28:03.437Z,83.50
2017-11-04T17:30:31.842Z,83.00
2017-11-04T17:33:02.031Z,84.60
2017-11-04T17:35:30.433Z,84.70
2017-11-04T17:38:03.693Z,80.50
2017-11-04T17:40:32.123Z,80.30
2017-11-04T17:43:01.142Z,82.10
2017-11-04T17:45:29.618Z,82.10
2017-11-04T17:47:57.870Z,82.60
2017-11-04T17:50:26.949Z,82.60
2017-11-04T17:52:55.215Z,82.50
2017-11-04T17:55:23.477Z,83.10
2017-11-04T17:57:51.723Z,84.90
2017-11-04T18:00:20.014Z,84.10
2017-11-04T18:02:48.283Z,84.30
2017-11-04T18:05:17.814Z,84.70
2017-11-04T18:07:46.292Z,85.20
2017-11-04T18:10:15.897Z,85.30
2017-11-04T18:12:44.162Z,87.10
2017-11-04T18:15:14.913Z,85.90
2017-11-04T18:17:43.188Z,87.90
2017-11-04T18:20:11.568Z,87.00
2017-11-04T18:22:40.620Z,89.30
2017-11-04T18:25:09.047Z,89.20
2017-11-04T18:27:37.463Z,86.70
2017-11-04T18:30:07.798Z,89.50
2017-11-04T18:32:36.972Z,86.60
2017-11-04T18:35:05.347Z,86.60
2017-11-04T18:37:33.645Z,89.80
2017-11-04T18:40:02.099Z,87.50
2017-11-04T18:42:30.514Z,87.70
2017-11-04T18:44:58.807Z,88.80
2017-11-04T18:47:27.063Z,87.60
2017-11-04T18:49:55.331Z,88.10
2017-11-04T18:52:23.781Z,89.00
2017-11-04T18:54:52.096Z,90.00
2017-11-04T18:57:20.394Z,89.30
2017-11-04T18:59:48.904Z,89.70
2017-11-04T19:02:17.149Z,89.30
2017-11-04T19:04:45.590Z,90.10
2017-11-04T19:07:15.992Z,89.40
2017-11-04T19:09:44.250Z,90.30
2017-11-04T19:12:12.510Z,90.10
2017-11-04T19:14:40.843Z,90.20
2017-11-04T19:17:10.243Z,90.10
2017-11-04T19:19:38.504Z,90.10
2017-11-04T19:22:07.026Z,90.00
2017-11-04T19:24:37.218Z,90.10
2017-11-04T19:27:09.636Z,90.10
2017-11-04T19:29:37.966Z,90.00
2017-11-04T19:32:06.371Z,90.70
2017-11-04T19:34:37.575Z,90.50
2017-11-04T19:37:05.874Z,90.50
2017-11-04T19:39:34.283Z,90.20
2017-11-04T19:42:03.582Z,90.40
2017-11-04T19:44:33.786Z,90.50
2017-11-04T19:47:02.161Z,90.50
2017-11-04T19:49:32.026Z,90.60
2017-11-04T19:52:00.489Z,90.40
2017-11-04T19:54:28.823Z,90.80
2017-11-04T19:56:57.560Z,91.10
2017-11-04T19:59:32.703Z,91.20
2017-11-04T20:02:02.303Z,91.20
2017-11-04T20:04:32.480Z,92.40
2017-11-04T20:07:07.317Z,92.50
2017-11-04T20:09:36.018Z,91.90
2017-11-04T20:12:07.144Z,92.50
2017-11-04T20:14:40.653Z,92.50
2017-11-04T20:17:09.125Z,91.90
2017-11-04T20:19:37.403Z,91.50
2017-11-04T20:22:05.678Z,91.80
2017-11-04T20:24:34.899Z,91.90
2017-11-04T20:27:03.931Z,91.90
2017-11-04T20:29:32.218Z,91.90
2017-11-04T20:32:00.496Z,92.00
2017-11-04T20:34:29.051Z,91.70
2017-11-04T20:36:57.558Z,92.90
2017-11-04T20:39:25.959Z,92.70
2017-11-04T20:41:54.279Z,92.70
2017-11-04T20:44:25.639Z,92.00
2017-11-04T20:46:54.079Z,92.20
2017-11-04T20:49:22.332Z,91.90
2017-11-04T20:51:50.617Z,91.90
2017-11-04T20:54:18.875Z,92.20
2017-11-04T20:56:49.371Z,92.40
2017-11-04T20:59:17.876Z,92.30
2017-11-04T21:01:46.162Z,91.70
2017-11-04T21:04:14.443Z,93.40
2017-11-04T21:06:42.730Z,92.80
2017-11-04T21:09:10.985Z,91.10
2017-11-04T21:11:39.247Z,90.30
2017-11-04T21:14:07.546Z,91.00
2017-11-04T21:16:35.821Z,92.50
2017-11-04T21:19:04.066Z,91.70
2017-11-04T21:21:32.608Z,90.80
2017-11-04T21:24:00.886Z,92.20
2017-11-04T21:26:29.144Z,93.00
2017-11-04T21:28:57.420Z,93.00
2017-11-04T21:31:25.690Z,92.50
2017-11-04T21:33:54.287Z,91.70
2017-11-04T21:36:23.766Z,91.90
2017-11-04T21:38:52.088Z,92.10
2017-11-04T21:41:20.758Z,92.40
2017-11-04T21:43:49.276Z,91.60
2017-11-04T21:46:20.627Z,91.70
2017-11-04T21:48:50.892Z,92.60
2017-11-04T21:51:19.187Z,92.50
2017-11-04T21:53:47.443Z,93.00
2017-11-04T21:56:15.717Z,92.40
2017-11-04T21:58:46.202Z,92.40
2017-11-04T22:01:15.249Z,92.40
2017-11-04T22:03:45.796Z,92.30
2017-11-04T22:06:14.089Z,92.70
2017-11-04T22:08:45.549Z,93.00
2017-11-04T22:11:14.287Z,93.40
2017-11-04T22:13:42.574Z,93.70
2017-11-04T22:16:10.837Z,93.00
2017-11-04T22:18:39.706Z,93.60
2017-11-04T22:21:09.943Z,92.80
2017-11-04T22:23:38.304Z,92.90
2017-11-04T22:26:07.665Z,93.00
2017-11-04T22:28:35.963Z,92.90
2017-11-04T22:31:04.328Z,93.20
2017-11-04T22:33:32.710Z,92.90
2017-11-04T22:36:01.097Z,92.30
2017-11-04T22:38:30.126Z,92.50
2017-11-04T22:40:58.415Z,92.20
2017-11-04T22:43:26.715Z,92.10
2017-11-04T22:45:54.968Z,93.40
2017-11-04T22:48:23.334Z,93.50
2017-11-04T22:50:51.586Z,93.20
2017-11-04T22:53:19.842Z,92.50
2017-11-04T22:55:48.138Z,92.60
2017-11-04T22:58:17.146Z,92.50
2017-11-04T23:00:45.418Z,92.30
2017-11-04T23:03:14.470Z,92.90
2017-11-04T23:05:42.723Z,93.00
2017-11-04T23:08:10.971Z,92.60
2017-11-04T23:10:40.078Z,93.30
2017-11-04T23:13:08.344Z,93.20
2017-11-04T23:15:36.603Z,93.50
2017-11-04T23:18:04.891Z,93.70
2017-11-04T23:20:33.906Z,92.70
2017-11-04T23:23:02.443Z,92.70
2017-11-04T23:25:30.711Z,92.90
2017-11-04T23:27:58.973Z,92.20
2017-11-04T23:30:27.280Z,92.00
2017-11-04T23:32:56.056Z,91.80
2017-11-04T23:35:24.371Z,91.30
2017-11-04T23:37:53.393Z,91.60
2017-11-04T23:40:21.675Z,91.60
2017-11-04T23:42:49.927Z,92.50
2017-11-04T23:45:18.178Z,92.60
2017-11-04T23:47:47.240Z,93.40
2017-11-04T23:50:15.498Z,93.40
2017-11-04T23:52:43.909Z,92.80
2017-11-04T23:55:12.251Z,93.20
2017-11-04T23:57:40.494Z,92.90
